Terral, Oklahoma
Current Conditions -  °F | °C
As of 8:15 PM on Friday 28 Nov 2014 (Local Time) from K0F2 Reporting Station
Clear Clear  
Wind Chill: 15°   Ceiling: Unl
Heat Index: 15°   Visibility: 10mi
Dew Point:   Wind: 10mph
Humidity: 65%   Direction: 170°S
Pressure: 29.95"   Gusts: NA
Location:  33.9°N, 97.94°W
Report Text: K0F2 290215Z AUTO 17009KT 10SM CLR 15/09 A2995 RMK AO2 T01520086
Loading
Personal Weather Stations






























Interactive Weather Map New forecast layout! Learn more

10-Day Weather Forecast

Advertisements
Track Severe Weather on mobile